Time;durP1;ratioP1;P1;durP2;ratioP2;P2;SDS_P1;SDS_P2;PMS_P1;PMS_P2;Temp;Humidity;BMP_temperature;BMP_pressure;BME280_temperature;BME280_humidity;BME280_pressure;Samples;Min_cycle;Max_cycle;Signal;HPM_P1;HPM_P2
2021/06/07 00:00:40;;;;;;;1.90;1.20;;;20.10;75.10;;;;;;5168522;27;20514;-42
2021/06/07 00:03:12;;;;;;;4.63;1.50;;;19.60;78.00;;;;;;5168441;27;20447;-42
2021/06/07 00:05:43;;;;;;;2.90;1.30;;;19.60;78.00;;;;;;5168685;27;20525;-42
2021/06/07 00:08:14;;;;;;;1.00;1.00;;;19.60;77.90;;;;;;5167813;27;20464;-41
2021/06/07 00:10:44;;;;;;;5.40;1.47;;;19.50;80.70;;;;;;5168565;27;20459;-43
2021/06/07 00:13:15;;;;;;;2.57;1.30;;;19.20;90.90;;;;;;5167744;27;20476;-43
2021/06/07 00:15:46;;;;;;;0.97;0.90;;;18.40;96.90;;;;;;5168536;27;20468;-43
2021/06/07 00:18:19;;;;;;;1.80;1.10;;;17.90;99.80;;;;;;5168326;27;20442;-44
2021/06/07 00:20:51;;;;;;;1.93;1.10;;;17.80;99.90;;;;;;5168385;27;20427;-43
2021/06/07 00:23:23;;;;;;;1.53;1.30;;;17.80;99.90;;;;;;5167884;27;20459;-43
2021/06/07 00:25:55;;;;;;;1.90;1.20;;;17.80;99.90;;;;;;5168024;27;20550;-43
2021/06/07 00:28:27;;;;;;;2.17;1.07;;;17.80;99.90;;;;;;5167874;27;20479;-43
2021/06/07 00:30:57;;;;;;;3.33;1.30;;;18.00;99.90;;;;;;5168931;27;20511;-42
2021/06/07 00:33:29;;;;;;;1.43;1.30;;;18.00;97.90;;;;;;5175662;27;20449;-44
2021/06/07 00:36:00;;;;;;;1.27;0.93;;;18.00;99.10;;;;;;5161492;27;20445;-45
2021/06/07 00:38:31;;;;;;;2.00;1.10;;;18.00;97.70;;;;;;5163611;27;20489;-45
2021/06/07 00:41:04;;;;;;;2.50;1.30;;;18.10;97.30;;;;;;5153171;27;20444;-43
2021/06/07 00:43:35;;;;;;;2.37;0.83;;;18.00;98.00;;;;;;5167954;27;20433;-42
2021/06/07 00:46:05;;;;;;;1.60;1.20;;;17.80;95.70;;;;;;5167081;27;20475;-41
2021/06/07 00:48:38;;;;;;;1.87;1.03;;;17.60;98.20;;;;;;5166974;27;20563;-43
2021/06/07 00:51:10;;;;;;;2.43;1.43;;;17.40;98.80;;;;;;5166772;27;20448;-43
2021/06/07 00:53:41;;;;;;;4.20;0.80;;;17.10;99.90;;;;;;5154680;27;20451;-42
2021/06/07 00:56:13;;;;;;;2.33;1.00;;;16.30;99.90;;;;;;5166224;27;20448;-42
2021/06/07 00:58:46;;;;;;;2.00;0.90;;;15.60;99.90;;;;;;5166863;27;20915;-42
2021/06/07 01:01:18;;;;;;;4.63;0.80;;;15.00;99.90;;;;;;5163252;27;20449;-41
2021/06/07 01:03:52;;;;;;;1.70;1.20;;;15.00;99.90;;;;;;5169624;27;20443;-41
2021/06/07 01:06:23;;;;;;;2.03;1.10;;;15.30;99.90;;;;;;5166505;27;20451;-41
2021/06/07 01:08:54;;;;;;;1.03;0.80;;;15.40;99.90;;;;;;5166684;27;20951;-41
2021/06/07 01:11:25;;;;;;;1.73;1.63;;;15.60;99.90;;;;;;5165989;27;20554;-41
2021/06/07 01:13:56;;;;;;;1.83;1.70;;;15.70;99.90;;;;;;5166230;27;20487;-41
2021/06/07 01:16:26;;;;;;;2.00;1.50;;;15.70;99.90;;;;;;5162519;27;20440;-42
2021/06/07 01:18:59;;;;;;;2.23;1.00;;;15.70;99.90;;;;;;5166675;27;20532;-42
2021/06/07 01:21:29;;;;;;;1.33;1.20;;;15.80;99.90;;;;;;5166129;27;20440;-41
2021/06/07 01:24:01;;;;;;;2.30;2.07;;;15.90;99.90;;;;;;5167067;27;20435;-41
2021/06/07 01:26:32;;;;;;;2.40;2.20;;;15.90;99.90;;;;;;5156200;27;20477;-41
2021/06/07 01:29:02;;;;;;;1.40;1.30;;;16.10;99.90;;;;;;5166729;27;20562;-41
2021/06/07 01:31:33;;;;;;;1.40;1.00;;;16.20;99.90;;;;;;5159169;27;20430;-39
2021/06/07 01:34:04;;;;;;;2.23;1.30;;;16.30;99.90;;;;;;5151032;27;21046;-42
2021/06/07 01:36:34;;;;;;;1.77;1.07;;;16.40;99.90;;;;;;5166196;27;20524;-41
2021/06/07 01:39:07;;;;;;;1.93;1.30;;;16.70;99.90;;;;;;5166430;27;20550;-42
2021/06/07 01:41:38;;;;;;;1.50;0.90;;;16.50;99.90;;;;;;5163421;27;20444;-42
2021/06/07 01:44:08;;;;;;;2.50;1.43;;;16.40;99.90;;;;;;5166565;27;20505;-41
2021/06/07 01:46:39;;;;;;;2.13;1.10;;;16.30;99.90;;;;;;5150908;27;20441;-42
2021/06/07 01:49:09;;;;;;;1.27;0.83;;;16.20;99.90;;;;;;5161741;27;20475;-41
2021/06/07 01:51:40;;;;;;;1.33;1.00;;;16.30;99.90;;;;;;5164579;27;20571;-40
2021/06/07 01:54:12;;;;;;;2.43;2.00;;;16.20;99.90;;;;;;5165862;27;20464;-41
2021/06/07 01:56:42;;;;;;;2.20;1.27;;;16.10;99.90;;;;;;5165534;27;20443;-41
2021/06/07 01:59:13;;;;;;;2.40;0.80;;;16.10;99.90;;;;;;5166339;27;20478;-41
2021/06/07 02:01:43;;;;;;;3.23;1.50;;;16.10;99.90;;;;;;5165227;27;20436;-41
2021/06/07 02:04:14;;;;;;;8.20;1.23;;;16.10;99.90;;;;;;5165082;27;20437;-43
2021/06/07 02:06:44;;;;;;;3.63;1.27;;;15.90;99.90;;;;;;5170350;27;20458;-44
2021/06/07 02:09:16;;;;;;;3.00;1.50;;;15.80;99.90;;;;;;5172484;27;20549;-41
2021/06/07 02:11:47;;;;;;;3.20;1.63;;;15.80;99.90;;;;;;5162298;27;20445;-43
2021/06/07 02:14:17;;;;;;;5.10;1.80;;;15.80;99.90;;;;;;5165420;27;20565;-46
2021/06/07 02:16:48;;;;;;;3.07;2.10;;;15.70;99.90;;;;;;5144864;27;20452;-43
2021/06/07 02:19:19;;;;;;;4.57;2.30;;;15.50;99.90;;;;;;5159912;27;20511;-45
2021/06/07 02:21:49;;;;;;;4.83;1.63;;;15.30;99.90;;;;;;5159698;27;20942;-32
2021/06/07 02:24:21;;;;;;;3.87;1.57;;;15.10;99.90;;;;;;5165030;27;20436;-34
2021/06/07 02:26:52;;;;;;;4.43;2.00;;;15.10;99.90;;;;;;5164970;27;20807;-33
2021/06/07 02:29:22;;;;;;;5.07;2.00;;;15.10;99.90;;;;;;5150642;27;20512;-31
2021/06/07 02:31:52;;;;;;;4.77;2.03;;;15.00;99.90;;;;;;5165860;27;20444;-42
2021/06/07 02:34:23;;;;;;;5.10;2.00;;;14.90;99.90;;;;;;5164624;27;20522;-43
2021/06/07 02:36:53;;;;;;;5.97;1.80;;;14.80;99.90;;;;;;5164701;27;20448;-41
2021/06/07 02:39:26;;;;;;;4.57;1.90;;;14.80;99.90;;;;;;5161613;27;20494;-40
2021/06/07 02:41:57;;;;;;;5.17;2.00;;;14.70;99.90;;;;;;5164539;27;20884;-41
2021/06/07 02:44:28;;;;;;;3.80;1.60;;;14.70;99.90;;;;;;5165699;27;20448;-41
2021/06/07 02:46:58;;;;;;;3.00;1.80;;;14.60;99.90;;;;;;5165233;27;20443;-41
2021/06/07 02:49:29;;;;;;;4.17;2.40;;;14.60;99.90;;;;;;5162245;27;20547;-41
2021/06/07 02:51:59;;;;;;;7.57;2.30;;;14.60;99.90;;;;;;5159187;27;20468;-41
2021/06/07 02:54:31;;;;;;;8.23;3.17;;;14.50;99.90;;;;;;5160785;27;20455;-41
2021/06/07 02:57:02;;;;;;;4.07;2.37;;;14.50;99.90;;;;;;5157093;27;20433;-41
2021/06/07 02:59:32;;;;;;;7.30;2.10;;;14.40;99.90;;;;;;5157861;27;20444;-41
2021/06/07 03:02:03;;;;;;;6.60;2.60;;;14.20;99.90;;;;;;5163568;27;20486;-41
2021/06/07 03:04:33;;;;;;;6.07;1.90;;;14.20;99.90;;;;;;5163323;27;20523;-43
2021/06/07 03:07:04;;;;;;;4.97;2.20;;;14.10;99.90;;;;;;5159440;27;20488;-42
2021/06/07 03:09:36;;;;;;;6.93;2.20;;;14.10;99.90;;;;;;5164889;27;20523;-42
2021/06/07 03:12:08;;;;;;;16.60;2.73;;;14.10;99.90;;;;;;5163855;27;20471;-42
2021/06/07 03:14:41;;;;;;;4.40;2.37;;;14.00;99.90;;;;;;5163863;27;20472;-42
2021/06/07 03:17:12;;;;;;;3.80;2.40;;;14.00;99.90;;;;;;5168400;27;20471;-42
2021/06/07 03:19:42;;;;;;;10.23;2.77;;;14.00;99.90;;;;;;5161892;27;20615;-42
2021/06/07 03:22:13;;;;;;;3.50;1.90;;;14.00;99.90;;;;;;5163931;27;20467;-42
2021/06/07 03:24:45;;;;;;;4.60;1.93;;;13.90;99.90;;;;;;5162961;27;20443;-41
2021/06/07 03:27:15;;;;;;;4.80;1.40;;;13.80;99.90;;;;;;5160631;27;20452;-40
2021/06/07 03:29:46;;;;;;;3.77;1.70;;;13.90;99.90;;;;;;5161497;27;20482;-41
2021/06/07 03:32:16;;;;;;;3.47;2.00;;;13.90;99.90;;;;;;5164487;27;20440;-41
2021/06/07 03:34:47;;;;;;;6.60;2.30;;;13.80;99.90;;;;;;5163392;27;20515;-41
2021/06/07 03:37:19;;;;;;;8.10;1.83;;;13.70;99.90;;;;;;5161125;27;20487;-41
2021/06/07 03:39:51;;;;;;;5.40;1.93;;;13.70;99.60;;;;;;5157479;27;20509;-41
2021/06/07 03:42:22;;;;;;;7.70;2.30;;;13.70;98.50;;;;;;5163620;27;20432;-41
2021/06/07 03:44:53;;;;;;;7.87;2.17;;;13.70;99.20;;;;;;5164649;27;20444;-42
2021/06/07 03:47:23;;;;;;;4.30;1.90;;;13.70;97.80;;;;;;5164452;27;20779;-42
2021/06/07 03:49:53;;;;;;;5.30;2.00;;;13.70;96.90;;;;;;5164016;27;20511;-43
2021/06/07 03:52:24;;;;;;;3.13;2.00;;;13.60;97.10;;;;;;5161334;27;20471;-42
2021/06/07 03:54:56;;;;;;;3.07;2.37;;;13.50;98.10;;;;;;5163926;27;20791;-41
2021/06/07 03:57:26;;;;;;;5.50;2.43;;;13.50;97.50;;;;;;5163347;27;20468;-41
2021/06/07 03:59:57;;;;;;;5.23;2.00;;;13.40;98.10;;;;;;5156756;27;20489;-41
2021/06/07 04:02:27;;;;;;;7.80;3.10;;;13.30;97.90;;;;;;5158239;27;20446;-42
2021/06/07 04:04:58;;;;;;;5.80;2.13;;;13.20;98.00;;;;;;5153601;27;20539;-42
2021/06/07 04:07:28;;;;;;;5.00;2.63;;;13.10;97.60;;;;;;5150123;27;20501;-42
2021/06/07 04:10:00;;;;;;;6.00;2.53;;;13.10;98.70;;;;;;5160133;27;20483;-42
2021/06/07 04:12:31;;;;;;;8.70;2.27;;;13.00;98.10;;;;;;5160513;27;20440;-42
2021/06/07 04:23:19;;;;;;;5.23;2.23;;;12.90;95.30;;;;;;5071320;22;20577;-37
2021/06/07 04:26:04;;;;;;;4.30;2.40;;;12.80;95.60;;;;;;5035232;28;20465;-34
2021/06/07 04:28:39;;;;;;;4.87;1.97;;;12.80;96.60;;;;;;5037884;28;20491;-35
2021/06/07 04:31:10;;;;;;;5.90;2.40;;;12.80;96.30;;;;;;5042384;28;20472;-40
2021/06/07 04:33:43;;;;;;;3.10;1.90;;;12.80;95.50;;;;;;5038506;28;20484;-40
2021/06/07 04:36:13;;;;;;;6.60;2.70;;;12.80;94.90;;;;;;5041539;28;21027;-43
2021/06/07 04:41:27;;;;;;;5.03;1.93;;;12.80;94.90;;;;;;5040905;22;20601;-40
2021/06/07 04:43:59;;;;;;;4.93;2.30;;;12.80;95.30;;;;;;5033816;28;20461;-36
2021/06/07 04:46:30;;;;;;;7.17;1.83;;;12.80;95.60;;;;;;5033498;28;20527;-46
2021/06/07 04:49:01;;;;;;;4.80;2.30;;;12.70;95.80;;;;;;5045501;28;20519;-42
2021/06/07 04:51:31;;;;;;;3.23;1.87;;;12.60;96.90;;;;;;5034520;28;20456;-39
2021/06/07 04:54:01;;;;;;;4.50;1.80;;;12.60;96.70;;;;;;5033233;28;20450;-44
2021/06/07 04:56:34;;;;;;;4.20;1.97;;;12.50;97.30;;;;;;5037222;28;20453;-39
2021/06/07 04:59:04;;;;;;;4.63;1.93;;;12.60;97.60;;;;;;5038307;28;20528;-44
2021/06/07 05:01:35;;;;;;;4.03;2.33;;;12.60;97.60;;;;;;5033150;28;20465;-39
2021/06/07 05:04:05;;;;;;;4.27;1.90;;;12.60;97.80;;;;;;5028573;28;20453;-39
2021/06/07 05:06:36;;;;;;;5.60;2.30;;;12.60;98.50;;;;;;5027091;28;20465;-38
2021/06/07 05:09:07;;;;;;;3.90;2.37;;;12.60;98.20;;;;;;5026587;28;20564;-38
2021/06/07 05:11:41;;;;;;;8.05;2.70;;;12.50;98.80;;;;;;5035904;28;20480;-40
2021/06/07 05:14:11;;;;;;;7.73;2.30;;;12.50;98.80;;;;;;5023848;28;20302;-38
2021/06/07 05:16:42;;;;;;;12.37;2.60;;;12.60;99.10;;;;;;5034997;28;20449;-38
2021/06/07 05:19:12;;;;;;;6.10;2.40;;;12.70;99.30;;;;;;5039827;28;20857;-39
2021/06/07 05:21:43;;;;;;;5.00;2.00;;;12.70;99.30;;;;;;5032645;28;20441;-39
2021/06/07 05:24:13;;;;;;;4.77;1.93;;;12.80;98.60;;;;;;5034126;28;20488;-41
2021/06/07 05:26:45;;;;;;;5.17;2.17;;;12.90;98.30;;;;;;5043335;28;20487;-41
2021/06/07 05:29:16;;;;;;;10.40;3.00;;;13.00;98.80;;;;;;5040895;28;20485;-39
2021/06/07 05:31:46;;;;;;;6.17;1.83;;;13.00;98.40;;;;;;5035926;28;20461;-39
2021/06/07 05:34:17;;;;;;;4.27;2.13;;;13.00;99.10;;;;;;5025269;28;20452;-45
2021/06/07 05:36:47;;;;;;;11.10;2.30;;;13.00;98.90;;;;;;5034078;28;20484;-46
2021/06/07 05:39:19;;;;;;;8.13;2.70;;;13.10;98.60;;;;;;5035331;28;20478;-38
2021/06/07 05:41:52;;;;;;;5.50;2.13;;;13.10;99.00;;;;;;5034492;28;20477;-38
2021/06/07 05:44:26;;;;;;;8.80;2.50;;;13.10;99.40;;;;;;5040380;28;20453;-41
2021/06/07 05:46:57;;;;;;;5.67;2.27;;;13.10;98.90;;;;;;5042842;28;20552;-37
2021/06/07 05:49:28;;;;;;;5.03;2.20;;;13.10;98.60;;;;;;5023697;28;20490;-39
2021/06/07 05:51:58;;;;;;;5.70;2.17;;;13.10;98.70;;;;;;5029880;28;20466;-39
2021/06/07 05:54:29;;;;;;;3.37;1.80;;;13.10;98.60;;;;;;5034511;28;20488;-40
2021/06/07 05:57:01;;;;;;;4.60;2.10;;;13.00;99.10;;;;;;5038594;28;20469;-39
2021/06/07 05:59:35;;;;;;;4.70;2.87;;;12.90;99.70;;;;;;5032896;28;20496;-42
2021/06/07 06:02:07;;;;;;;5.57;3.10;;;12.80;99.50;;;;;;5043677;28;20449;-40
2021/06/07 06:04:40;;;;;;;5.97;2.50;;;12.80;99.90;;;;;;5038110;28;20484;-38
2021/06/07 06:07:10;;;;;;;4.70;2.83;;;12.60;99.90;;;;;;5027769;28;20493;-37
2021/06/07 06:09:41;;;;;;;6.47;2.63;;;12.60;99.90;;;;;;5035287;28;20503;-38
2021/06/07 06:12:13;;;;;;;4.50;2.20;;;12.70;99.90;;;;;;5035626;28;20453;-39
2021/06/07 06:14:44;;;;;;;12.53;2.80;;;12.80;99.90;;;;;;5033364;28;20490;-39
2021/06/07 06:17:14;;;;;;;6.57;2.30;;;12.70;99.90;;;;;;5042773;28;20446;-38
2021/06/07 06:19:45;;;;;;;7.00;2.60;;;12.80;99.90;;;;;;5033475;28;20879;-37
2021/06/07 06:22:19;;;;;;;7.43;2.67;;;12.80;99.90;;;;;;5036766;28;20449;-39
2021/06/07 06:24:49;;;;;;;5.47;2.90;;;12.80;99.90;;;;;;5035116;28;20446;-38
2021/06/07 06:27:22;;;;;;;6.10;3.00;;;12.90;99.90;;;;;;5042121;28;20449;-37
2021/06/07 06:29:53;;;;;;;7.80;2.60;;;12.90;99.90;;;;;;5037576;28;20526;-38
2021/06/07 06:32:23;;;;;;;4.40;2.50;;;13.00;99.90;;;;;;5034836;28;20518;-38
2021/06/07 06:34:54;;;;;;;6.03;2.47;;;13.00;99.90;;;;;;5027017;28;20454;-38
2021/06/07 06:37:25;;;;;;;9.73;2.70;;;13.00;99.90;;;;;;5026315;28;20445;-39
2021/06/07 06:39:55;;;;;;;6.90;2.60;;;12.90;99.90;;;;;;5031405;28;20461;-38
2021/06/07 06:42:28;;;;;;;5.13;2.37;;;12.90;99.90;;;;;;5026458;28;20486;-39
2021/06/07 06:44:58;;;;;;;8.57;2.80;;;12.90;99.90;;;;;;5027275;28;21012;-38
2021/06/07 06:47:28;;;;;;;6.73;2.57;;;12.90;99.90;;;;;;5040870;28;20529;-38
2021/06/07 06:49:59;;;;;;;8.13;2.40;;;12.90;99.90;;;;;;5042237;28;20489;-38
2021/06/07 06:52:30;;;;;;;4.43;2.07;;;12.80;99.90;;;;;;5041023;28;20500;-37
2021/06/07 06:55:01;;;;;;;7.73;2.40;;;12.70;99.90;;;;;;5034021;28;20569;-37
2021/06/07 06:57:33;;;;;;;7.27;2.73;;;12.80;99.90;;;;;;5032574;28;20484;-38
2021/06/07 07:00:06;;;;;;;7.50;2.53;;;12.80;99.90;;;;;;5039437;28;20477;-39
2021/06/07 07:02:36;;;;;;;5.53;3.50;;;12.70;99.90;;;;;;5027148;28;20482;-38
2021/06/07 07:05:07;;;;;;;5.80;1.90;;;12.70;99.90;;;;;;5037823;28;20457;-38
2021/06/07 07:07:38;;;;;;;7.07;2.40;;;12.80;99.90;;;;;;5041170;28;20607;-38
2021/06/07 07:10:11;;;;;;;10.80;3.30;;;12.70;99.90;;;;;;5039174;28;20504;-39
2021/06/07 07:12:43;;;;;;;9.43;3.30;;;12.80;99.90;;;;;;5035666;28;20462;-39
2021/06/07 07:15:13;;;;;;;6.40;3.77;;;12.80;99.90;;;;;;5028522;28;20549;-38
2021/06/07 07:17:44;;;;;;;9.57;3.43;;;12.70;99.90;;;;;;5042280;28;20458;-38
2021/06/07 07:20:15;;;;;;;9.98;3.08;;;12.50;99.90;;;;;;5036951;28;20441;-39
2021/06/07 07:22:46;;;;;;;7.90;3.40;;;12.20;99.90;;;;;;5032675;28;20203;-39
2021/06/07 07:25:16;;;;;;;7.38;3.10;;;12.00;99.90;;;;;;5034773;28;20519;-39
2021/06/07 07:27:49;;;;;;;12.27;3.83;;;11.80;99.90;;;;;;5039209;28;20237;-39
2021/06/07 07:30:22;;;;;;;9.90;3.50;;;11.70;99.90;;;;;;5029924;28;20548;-38
2021/06/07 07:32:52;;;;;;;6.75;2.60;;;11.60;99.90;;;;;;5042357;28;20275;-40
2021/06/07 07:35:24;;;;;;;7.50;2.80;;;11.60;99.90;;;;;;5037305;28;20235;-39
2021/06/07 07:37:55;;;;;;;8.98;3.10;;;11.50;99.90;;;;;;5040174;28;20256;-39
2021/06/07 07:40:27;;;;;;;8.68;3.55;;;11.50;99.90;;;;;;5034952;28;20269;-40
2021/06/07 07:43:00;;;;;;;6.57;3.47;;;11.50;99.90;;;;;;5029111;28;20233;-40
2021/06/07 07:45:31;;;;;;;10.80;3.08;;;11.60;99.90;;;;;;5031944;28;20453;-40
2021/06/07 07:48:04;;;;;;;6.78;3.13;;;11.50;99.90;;;;;;5039759;28;20233;-40
2021/06/07 07:50:36;;;;;;;7.30;3.20;;;11.50;99.90;;;;;;5029519;28;20225;-39
2021/06/07 07:53:07;;;;;;;7.70;3.08;;;11.40;99.90;;;;;;5033520;28;20234;-39
2021/06/07 07:55:38;;;;;;;10.45;3.85;;;11.20;99.90;;;;;;5031516;28;20225;-39
2021/06/07 07:58:13;;;;;;;7.68;3.75;;;11.10;99.90;;;;;;5034367;28;20218;-40
2021/06/07 08:00:46;;;;;;;18.92;5.68;;;11.00;99.90;;;;;;5034079;28;20214;-40
2021/06/07 08:03:17;;;;;;;11.10;6.32;;;11.00;99.90;;;;;;5041186;28;20301;-39
2021/06/07 08:05:48;;;;;;;10.43;6.38;;;10.90;99.90;;;;;;5035636;28;20279;-38
2021/06/07 08:08:18;;;;;;;7.90;4.90;;;10.90;99.90;;;;;;5039064;28;20191;-41
2021/06/07 08:10:55;;;;;;;11.90;4.25;;;10.90;99.90;;;;;;5026088;28;20286;-39
2021/06/07 08:13:27;;;;;;;7.72;3.97;;;10.80;99.90;;;;;;5024578;28;20711;-40
2021/06/07 08:15:57;;;;;;;6.22;2.92;;;10.80;99.90;;;;;;5040790;28;20211;-38
2021/06/07 08:18:28;;;;;;;7.35;3.10;;;10.80;99.90;;;;;;5027576;28;20358;-38
2021/06/07 08:20:58;;;;;;;8.15;2.90;;;10.80;99.90;;;;;;5036977;28;20203;-38
2021/06/07 08:23:29;;;;;;;6.57;3.40;;;10.80;99.90;;;;;;5036808;28;20287;-38
2021/06/07 08:25:59;;;;;;;8.38;2.88;;;10.80;99.90;;;;;;5035527;28;20203;-39
2021/06/07 08:28:31;;;;;;;10.38;3.30;;;10.80;99.90;;;;;;5044248;28;20210;-39
2021/06/07 08:31:02;;;;;;;6.22;2.80;;;10.70;99.90;;;;;;5037432;28;20284;-38
2021/06/07 08:33:35;;;;;;;7.13;3.38;;;10.70;99.90;;;;;;5033116;28;20213;-38
2021/06/07 08:36:06;;;;;;;8.35;3.20;;;10.60;99.90;;;;;;5040067;28;20282;-41
2021/06/07 08:38:36;;;;;;;7.80;2.72;;;10.60;99.90;;;;;;5028665;28;20199;-38
2021/06/07 08:41:08;;;;;;;5.93;3.10;;;10.60;99.90;;;;;;5032356;28;20243;-38
2021/06/07 08:43:41;;;;;;;6.88;2.50;;;10.60;99.90;;;;;;5031429;28;20238;-40
2021/06/07 08:46:22;;;;;;;6.15;2.88;;;10.50;99.90;;;;;;5027248;28;20210;-38
2021/06/07 08:48:53;;;;;;;10.88;3.60;;;10.60;99.90;;;;;;5040627;28;20238;-38
2021/06/07 08:51:24;;;;;;;10.32;3.00;;;10.60;99.90;;;;;;5028993;28;20310;-38
2021/06/07 08:53:55;;;;;;;8.00;2.30;;;10.50;99.90;;;;;;5038571;28;20266;-39
2021/06/07 08:56:25;;;;;;;10.02;3.20;;;10.40;99.90;;;;;;5038474;28;20218;-38
2021/06/07 08:58:57;;;;;;;6.55;2.80;;;10.50;99.90;;;;;;5042965;28;20199;-38
2021/06/07 09:01:39;;;;;;;7.80;2.70;;;10.40;99.90;;;;;;5028974;28;20214;-37
2021/06/07 09:04:13;;;;;;;9.05;2.90;;;10.40;99.90;;;;;;5042785;28;20202;-38
2021/06/07 09:06:45;;;;;;;8.50;2.70;;;10.40;99.90;;;;;;5033451;28;20218;-39
2021/06/07 09:09:17;;;;;;;6.72;2.53;;;10.30;99.90;;;;;;5033591;28;20196;-39
2021/06/07 09:11:56;;;;;;;9.30;2.80;;;10.30;99.90;;;;;;5030030;28;20257;-42
2021/06/07 09:14:30;;;;;;;12.05;4.07;;;10.30;99.90;;;;;;5032156;28;20217;-37
2021/06/07 09:17:01;;;;;;;4.88;2.42;;;10.30;99.90;;;;;;5028476;28;20214;-38
2021/06/07 09:19:32;;;;;;;5.53;2.60;;;10.40;99.90;;;;;;5032720;28;20207;-38
2021/06/07 09:22:24;;;;;;;6.65;2.55;;;10.30;99.90;;;;;;5040435;28;20203;-41
2021/06/07 09:25:06;;;;;;;7.32;2.60;;;10.30;99.90;;;;;;5039517;28;20240;-38
2021/06/07 09:27:37;;;;;;;2.97;1.90;;;10.40;99.90;;;;;;5035741;28;20291;-43
2021/06/07 09:30:27;;;;;;;8.15;2.50;;;10.40;99.90;;;;;;5040224;28;20616;-38
2021/06/07 09:33:17;;;;;;;4.53;2.30;;;10.50;99.90;;;;;;5040302;28;20238;-41
2021/06/07 09:36:04;;;;;;;5.82;2.22;;;10.50;99.90;;;;;;5042342;28;20567;-39
2021/06/07 09:38:36;;;;;;;6.45;1.98;;;10.60;99.90;;;;;;5037963;28;20211;-43
2021/06/07 09:41:07;;;;;;;3.63;2.10;;;10.60;99.90;;;;;;5040992;28;20253;-39
2021/06/07 09:43:49;;;;;;;9.27;3.30;;;10.60;99.90;;;;;;5044091;28;20198;-40
2021/06/07 09:46:24;;;;;;;6.55;2.35;;;10.70;99.90;;;;;;5042047;28;20266;-40
2021/06/07 09:49:14;;;;;;;5.13;1.90;;;10.60;99.90;;;;;;5041747;28;20206;-39
2021/06/07 09:51:53;;;;;;;9.38;2.78;;;10.50;99.90;;;;;;5034497;28;20291;-40
2021/06/07 09:54:25;;;;;;;8.65;2.90;;;10.50;99.90;;;;;;5043645;28;20233;-38
2021/06/07 09:56:57;;;;;;;6.57;2.63;;;10.40;99.90;;;;;;5041625;28;20278;-40
2021/06/07 09:59:32;;;;;;;6.85;2.20;;;10.40;99.90;;;;;;5041906;28;20209;-39
2021/06/07 10:02:15;;;;;;;9.05;2.55;;;10.30;99.90;;;;;;5037314;28;20237;-40
2021/06/07 10:04:50;;;;;;;7.88;2.42;;;10.30;99.90;;;;;;5036937;28;20822;-40
2021/06/07 10:07:21;;;;;;;6.85;2.80;;;10.20;99.90;;;;;;5038957;28;20268;-42
2021/06/07 10:10:18;;;;;;;6.30;3.15;;;10.10;99.90;;;;;;5035006;28;20211;-39
2021/06/07 10:12:49;;;;;;;5.95;2.33;;;10.00;99.90;;;;;;5035843;28;20217;-40
2021/06/07 10:15:34;;;;;;;3.03;1.77;;;10.00;99.90;;;;;;5039872;28;20218;-42
2021/06/07 10:18:08;;;;;;;7.70;2.25;;;9.90;99.90;;;;;;5038712;28;20264;-40
2021/06/07 10:20:50;;;;;;;4.68;2.35;;;9.90;99.90;;;;;;5034584;28;20332;-40
2021/06/07 10:23:23;;;;;;;7.57;3.25;;;9.80;99.90;;;;;;5035046;28;20199;-42
2021/06/07 10:25:55;;;;;;;8.80;2.72;;;9.80;99.90;;;;;;5034259;28;20199;-42
2021/06/07 10:28:28;;;;;;;4.20;2.40;;;9.80;99.90;;;;;;5028682;28;20270;-39
2021/06/07 10:31:08;;;;;;;8.93;2.75;;;9.80;99.90;;;;;;5028504;28;20346;-40
2021/06/07 10:33:42;;;;;;;4.55;2.65;;;9.80;99.90;;;;;;5026935;28;20238;-39
2021/06/07 10:36:39;;;;;;;10.05;2.80;;;9.80;99.90;;;;;;5034048;28;20325;-38
2021/06/07 10:39:24;;;;;;;5.50;2.60;;;9.90;99.90;;;;;;5027375;28;20226;-38
2021/06/07 10:42:17;;;;;;;4.75;2.58;;;9.90;99.90;;;;;;5026664;28;20286;-41
2021/06/07 10:44:50;;;;;;;4.60;1.90;;;9.90;99.90;;;;;;5031214;28;20203;-39
2021/06/07 10:47:22;;;;;;;4.40;2.58;;;9.80;99.90;;;;;;5036059;28;20246;-39
2021/06/07 10:49:58;;;;;;;7.53;2.70;;;9.70;99.90;;;;;;5034842;28;20331;-41
2021/06/07 10:52:31;;;;;;;5.95;2.47;;;9.70;99.90;;;;;;5037026;28;20301;-39
2021/06/07 10:55:02;;;;;;;6.35;2.47;;;9.70;99.90;;;;;;5033486;28;20199;-42
2021/06/07 10:57:36;;;;;;;5.47;2.30;;;9.70;99.90;;;;;;5023267;28;20210;-40
2021/06/07 11:00:16;;;;;;;8.07;2.30;;;9.60;99.90;;;;;;5034690;28;20234;-39
2021/06/07 11:02:48;;;;;;;7.57;2.30;;;9.60;99.90;;;;;;5028801;28;20234;-40
2021/06/07 11:05:21;;;;;;;6.70;1.80;;;9.60;99.90;;;;;;5025510;28;20207;-39
2021/06/07 11:08:10;;;;;;;8.18;2.42;;;9.50;99.90;;;;;;5034843;28;20211;-40
2021/06/07 11:10:43;;;;;;;7.78;2.65;;;9.50;99.90;;;;;;5029719;28;20204;-40
2021/06/07 11:13:15;;;;;;;5.45;2.28;;;9.50;99.90;;;;;;5033565;28;20660;-39
2021/06/07 11:15:55;;;;;;;5.50;2.45;;;9.50;99.90;;;;;;5032924;28;20207;-40
2021/06/07 11:18:30;;;;;;;8.40;2.70;;;9.50;99.90;;;;;;5037655;28;20198;-39
2021/06/07 11:21:27;;;;;;;11.07;2.45;;;9.50;99.90;;;;;;5034428;28;20206;-39
2021/06/07 11:23:57;;;;;;;5.93;2.40;;;9.50;99.90;;;;;;5040767;28;20221;-40
2021/06/07 11:26:39;;;;;;;10.10;4.13;;;9.50;99.90;;;;;;5041996;28;20255;-40
2021/06/07 11:29:12;;;;;;;4.03;2.38;;;9.50;99.90;;;;;;5031889;28;20230;-39
2021/06/07 11:31:46;;;;;;;5.20;2.78;;;9.50;99.90;;;;;;5040416;28;20230;-41
2021/06/07 11:34:20;;;;;;;7.40;2.80;;;9.50;99.90;;;;;;5026813;28;20209;-39
2021/06/07 11:36:59;;;;;;;5.60;2.72;;;9.50;99.90;;;;;;5039776;28;20194;-39
2021/06/07 11:39:49;;;;;;;8.88;2.90;;;9.50;99.90;;;;;;5030925;28;20245;-39
2021/06/07 11:42:25;;;;;;;7.28;2.60;;;9.60;99.90;;;;;;5027089;28;20257;-39
2021/06/07 11:45:04;;;;;;;5.50;2.63;;;9.60;99.90;;;;;;5040119;28;20202;-40
2021/06/07 11:47:52;;;;;;;5.55;2.60;;;9.60;99.90;;;;;;5042387;28;20233;-40
2021/06/07 11:50:31;;;;;;;9.00;3.05;;;9.70;99.90;;;;;;5030202;28;20273;-41
2021/06/07 11:53:15;;;;;;;6.93;2.40;;;9.60;99.90;;;;;;5037158;28;20207;-42
2021/06/07 11:55:48;;;;;;;8.90;2.67;;;9.50;99.90;;;;;;5026782;28;20203;-40
2021/06/07 11:58:21;;;;;;;7.20;3.20;;;9.40;99.90;;;;;;5037160;28;20195;-45
2021/06/07 12:00:54;;;;;;;9.43;3.30;;;9.50;99.90;;;;;;5034176;28;20231;-42
2021/06/07 12:03:26;;;;;;;8.98;4.22;;;9.50;99.90;;;;;;5040093;28;20206;-39
2021/06/07 12:05:57;;;;;;;10.95;3.35;;;9.50;99.90;;;;;;5034570;28;20213;-38
2021/06/07 12:08:30;;;;;;;8.25;3.03;;;9.40;99.90;;;;;;5037277;28;20237;-38
2021/06/07 12:11:02;;;;;;;3.67;2.60;;;9.40;99.90;;;;;;5028004;28;21111;-39
2021/06/07 12:13:33;;;;;;;9.15;3.20;;;9.40;99.90;;;;;;5036602;28;20203;-38
2021/06/07 12:16:08;;;;;;;10.30;2.80;;;9.40;99.90;;;;;;5027071;28;20271;-38
2021/06/07 12:18:42;;;;;;;10.85;2.75;;;9.40;99.90;;;;;;5034803;28;20270;-39
2021/06/07 12:21:15;;;;;;;6.50;2.95;;;9.40;99.90;;;;;;5034303;28;20642;-39
2021/06/07 12:23:53;;;;;;;5.93;2.30;;;9.50;99.90;;;;;;5028665;28;20250;-41
2021/06/07 12:29:27;;;;;;;9.48;3.20;;;9.60;99.90;;;;;;5035658;28;20206;-38
2021/06/07 12:32:16;;;;;;;5.25;3.25;;;9.70;99.90;;;;;;5035531;28;20298;-39
2021/06/07 12:35:06;;;;;;;9.05;2.90;;;9.70;99.90;;;;;;5045949;28;20640;-39
2021/06/07 12:37:38;;;;;;;5.97;2.70;;;9.70;99.90;;;;;;5036275;28;20627;-38
2021/06/07 12:40:17;;;;;;;5.65;2.35;;;9.80;99.90;;;;;;5041747;28;20635;-38
2021/06/07 12:43:15;;;;;;;8.75;2.65;;;9.90;99.90;;;;;;5044242;28;20214;-41
2021/06/07 12:45:50;;;;;;;12.73;3.58;;;10.00;99.90;;;;;;5045197;28;20210;-40
2021/06/07 12:48:23;;;;;;;9.18;3.00;;;10.00;99.90;;;;;;5036846;28;20239;-38
2021/06/07 12:50:54;;;;;;;6.50;2.60;;;10.00;99.90;;;;;;5043850;28;20490;-38
2021/06/07 12:53:26;;;;;;;8.32;2.50;;;10.00;99.90;;;;;;5040559;28;20261;-38
2021/06/07 12:56:02;;;;;;;4.90;2.72;;;10.00;99.90;;;;;;5040016;28;20274;-38
2021/06/07 12:58:33;;;;;;;6.53;3.22;;;10.00;99.90;;;;;;5025728;28;20191;-38
2021/06/07 13:01:06;;;;;;;6.82;2.40;;;10.10;99.90;;;;;;5035638;28;20226;-39
2021/06/07 13:03:37;;;;;;;10.73;3.05;;;10.10;99.90;;;;;;5031344;28;20330;-40
2021/06/07 13:06:10;;;;;;;6.65;2.67;;;10.20;99.90;;;;;;5043517;28;20617;-39
2021/06/07 13:08:53;;;;;;;6.28;3.00;;;10.20;99.90;;;;;;5030647;28;20203;-42
2021/06/07 13:11:37;;;;;;;7.43;2.85;;;10.20;99.90;;;;;;5027482;28;20227;-39
2021/06/07 13:14:09;;;;;;;5.43;2.55;;;10.30;99.90;;;;;;5035439;28;20713;-40
2021/06/07 13:16:40;;;;;;;9.75;3.40;;;10.40;99.90;;;;;;5045324;28;20234;-39
2021/06/07 13:19:11;;;;;;;9.32;3.42;;;10.40;99.90;;;;;;5039110;28;20203;-39
2021/06/07 13:21:45;;;;;;;7.85;2.50;;;10.50;99.90;;;;;;5032050;28;20207;-38
2021/06/07 13:24:19;;;;;;;5.47;2.40;;;10.60;99.90;;;;;;5041182;28;20207;-39
2021/06/07 13:26:52;;;;;;;7.80;2.65;;;10.70;99.90;;;;;;5027841;28;20538;-42
2021/06/07 13:29:29;;;;;;;6.77;2.80;;;10.90;99.90;;;;;;5034285;28;20190;-39
2021/06/07 13:32:28;;;;;;;4.75;2.42;;;11.10;99.90;;;;;;5042010;28;20623;-40